createdAt,value
2018-08-09T00:00:40.846Z,75.52
2018-08-09T00:03:10.963Z,75.57
2018-08-09T00:05:40.089Z,75.97
2018-08-09T00:08:16.948Z,75.64
2018-08-09T00:10:46.612Z,76.24
2018-08-09T00:13:16.564Z,76.43
2018-08-09T00:15:45.882Z,76.01
2018-08-09T00:18:14.937Z,75.98
2018-08-09T00:20:44.222Z,75.97
2018-08-09T00:23:13.258Z,76.01
2018-08-09T00:25:43.181Z,75.89
2018-08-09T00:28:12.729Z,75.86
2018-08-09T00:30:42.226Z,76.25
2018-08-09T00:33:11.469Z,76.69
2018-08-09T00:35:40.803Z,76.68
2018-08-09T00:38:09.932Z,76.73
2018-08-09T00:40:38.980Z,77.64
2018-08-09T00:43:07.868Z,78.35
2018-08-09T00:45:36.769Z,78.68
2018-08-09T00:48:05.678Z,78.19
2018-08-09T00:50:34.423Z,78.29
2018-08-09T00:53:03.227Z,78.52
2018-08-09T00:55:32.518Z,78.51
2018-08-09T00:58:02.298Z,78.57
2018-08-09T01:00:31.341Z,78.98
2018-08-09T01:03:00.683Z,78.35
2018-08-09T01:05:30.038Z,79.13
2018-08-09T01:07:58.825Z,79.01
2018-08-09T01:10:27.631Z,79.32
2018-08-09T01:12:56.655Z,79.26
2018-08-09T01:15:25.703Z,79.15
2018-08-09T01:17:54.725Z,79.97
2018-08-09T01:20:23.764Z,79.30
2018-08-09T01:22:52.535Z,79.83
2018-08-09T01:25:21.839Z,79.71
2018-08-09T01:27:50.582Z,80.22
2018-08-09T01:30:19.738Z,80.39
2018-08-09T01:32:49.145Z,80.63
2018-08-09T01:35:19.264Z,80.27
2018-08-09T01:37:48.067Z,80.34
2018-08-09T01:40:17.089Z,80.79
2018-08-09T01:42:56.882Z,80.61
2018-08-09T01:45:25.775Z,80.50
2018-08-09T01:47:55.431Z,80.97
2018-08-09T01:50:24.713Z,80.88
2018-08-09T01:52:53.600Z,80.50
2018-08-09T01:55:22.456Z,81.09
2018-08-09T01:57:51.838Z,80.76
2018-08-09T02:00:20.572Z,80.68
2018-08-09T02:02:49.455Z,81.14
2018-08-09T02:05:18.240Z,80.93
2018-08-09T02:07:47.231Z,80.96
2018-08-09T02:10:16.609Z,81.35
2018-08-09T02:12:45.800Z,81.03
2018-08-09T02:15:14.546Z,81.58
2018-08-09T02:17:44.124Z,81.39
2018-08-09T02:20:13.524Z,81.79
2018-08-09T02:22:42.303Z,81.47
2018-08-09T02:25:11.837Z,81.41
2018-08-09T02:27:41.347Z,81.53
2018-08-09T02:30:10.648Z,81.39
2018-08-09T02:32:39.702Z,81.42
2018-08-09T02:35:09.097Z,81.55
2018-08-09T02:37:38.465Z,82.21
2018-08-09T02:40:07.380Z,81.88
2018-08-09T02:42:36.221Z,82.17
2018-08-09T02:45:05.021Z,82.57
2018-08-09T02:47:34.139Z,82.15
2018-08-09T02:50:03.286Z,82.24
2018-08-09T02:52:32.725Z,82.19
2018-08-09T02:55:01.610Z,82.46
2018-08-09T02:57:31.106Z,82.98
2018-08-09T03:00:00.188Z,82.77
2018-08-09T03:02:29.239Z,82.93
2018-08-09T03:04:58.221Z,82.74
2018-08-09T03:07:27.177Z,82.78
2018-08-09T03:09:56.553Z,83.23
2018-08-09T03:12:25.388Z,83.47
2018-08-09T03:14:54.414Z,83.76
2018-08-09T03:17:23.262Z,84.03
2018-08-09T03:19:52.467Z,84.27
2018-08-09T03:22:21.641Z,85.44
2018-08-09T03:24:50.894Z,85.47
2018-08-09T03:27:20.124Z,85.62
2018-08-09T03:29:49.008Z,85.45
2018-08-09T03:32:17.900Z,85.48
2018-08-09T03:34:46.607Z,85.17
2018-08-09T03:37:15.478Z,84.91
2018-08-09T03:39:44.618Z,85.60
2018-08-09T03:42:13.358Z,85.28
2018-08-09T03:44:42.774Z,85.04
2018-08-09T03:47:11.910Z,85.21
2018-08-09T03:49:41.308Z,85.58
2018-08-09T03:52:10.532Z,85.59
2018-08-09T03:54:39.531Z,85.63
2018-08-09T03:57:08.267Z,85.85
2018-08-09T03:59:37.140Z,85.86
2018-08-09T04:02:06.342Z,86.36
2018-08-09T04:04:35.131Z,86.45
2018-08-09T04:07:04.257Z,85.89
2018-08-09T04:09:33.083Z,85.91
2018-08-09T04:12:02.172Z,85.82
2018-08-09T04:14:30.891Z,85.35
2018-08-09T04:16:59.732Z,85.05
2018-08-09T04:19:28.775Z,85.43
2018-08-09T04:21:57.533Z,85.18
2018-08-09T04:24:26.591Z,84.28
2018-08-09T04:26:55.819Z,84.49
2018-08-09T04:29:25.524Z,83.92
2018-08-09T04:31:54.301Z,84.09
2018-08-09T04:34:23.350Z,83.99
2018-08-09T04:36:52.104Z,84.33
2018-08-09T04:39:20.883Z,84.29
2018-08-09T04:41:49.889Z,84.63
2018-08-09T04:44:18.758Z,84.72
2018-08-09T04:46:48.791Z,84.60
2018-08-09T04:49:17.818Z,84.89
2018-08-09T04:51:46.633Z,85.20
2018-08-09T04:54:15.881Z,84.81
2018-08-09T04:56:44.659Z,84.65
2018-08-09T04:59:13.415Z,84.26
2018-08-09T05:01:42.169Z,84.58
2018-08-09T05:04:11.592Z,84.46
2018-08-09T05:06:40.759Z,84.03
2018-08-09T05:09:11.022Z,84.18
2018-08-09T05:11:40.382Z,83.74
2018-08-09T05:14:09.407Z,84.42
2018-08-09T05:16:38.541Z,84.95
2018-08-09T05:19:07.515Z,85.07
2018-08-09T05:21:36.248Z,85.71
2018-08-09T05:24:05.327Z,85.55
2018-08-09T05:26:34.353Z,87.09
2018-08-09T05:29:03.140Z,88.66
2018-08-09T05:31:31.903Z,88.72
2018-08-09T05:34:01.287Z,89.60
2018-08-09T05:36:30.102Z,89.68
2018-08-09T05:38:59.178Z,89.95
2018-08-09T05:41:27.990Z,90.34
2018-08-09T05:43:56.760Z,90.47
2018-08-09T05:46:26.205Z,91.17
2018-08-09T05:48:55.516Z,90.99
2018-08-09T05:51:24.355Z,91.35
2018-08-09T05:53:53.422Z,91.03
2018-08-09T05:56:22.505Z,90.54
2018-08-09T05:58:51.518Z,91.29
2018-08-09T06:01:20.354Z,91.16
2018-08-09T06:03:49.149Z,90.28
2018-08-09T06:06:17.981Z,90.28
2018-08-09T06:08:47.018Z,89.59
2018-08-09T06:11:15.718Z,89.94
2018-08-09T06:13:44.732Z,88.90
2018-08-09T06:16:13.850Z,88.86
2018-08-09T06:18:42.960Z,88.50
2018-08-09T06:21:11.688Z,87.90
2018-08-09T06:23:40.638Z,87.93
2018-08-09T06:26:09.373Z,86.30
2018-08-09T06:28:38.189Z,85.52
2018-08-09T06:31:07.332Z,85.56
2018-08-09T06:33:36.310Z,84.49
2018-08-09T06:36:05.493Z,84.99
2018-08-09T06:38:34.245Z,84.18
2018-08-09T06:41:04.443Z,83.16
2018-08-09T06:43:33.660Z,83.01
2018-08-09T06:46:02.430Z,82.10
2018-08-09T06:48:31.183Z,81.46
2018-08-09T06:50:59.932Z,79.49
2018-08-09T06:53:28.871Z,79.18
2018-08-09T06:55:58.051Z,77.87
2018-08-09T06:58:26.803Z,77.71
2018-08-09T07:00:56.072Z,75.68
2018-08-09T07:03:24.925Z,75.17
2018-08-09T07:05:53.702Z,73.63
2018-08-09T07:08:22.440Z,72.15
2018-08-09T07:10:51.170Z,71.77
2018-08-09T07:13:19.903Z,71.68
2018-08-09T07:15:49.498Z,71.58
2018-08-09T07:18:18.227Z,69.81
2018-08-09T07:20:46.942Z,69.44
2018-08-09T07:23:15.771Z,68.53
2018-08-09T07:25:44.771Z,65.82
2018-08-09T07:28:13.523Z,63.94
2018-08-09T07:30:42.333Z,64.03
2018-08-09T07:33:11.048Z,63.47
2018-08-09T07:35:39.780Z,63.47
2018-08-09T07:38:09.020Z,61.77
2018-08-09T07:40:37.946Z,61.37
2018-08-09T07:43:06.796Z,61.82
2018-08-09T07:45:35.789Z,60.18
2018-08-09T07:48:05.528Z,60.47
2018-08-09T07:50:34.262Z,61.14
2018-08-09T07:53:02.997Z,59.55
2018-08-09T07:55:32.001Z,59.25
2018-08-09T07:58:00.958Z,58.95
2018-08-09T08:00:30.342Z,56.93
2018-08-09T08:02:59.097Z,57.26
2018-08-09T08:05:28.532Z,57.89
2018-08-09T08:07:57.674Z,57.74
2018-08-09T08:10:27.241Z,55.99
2018-08-09T08:12:55.960Z,56.20
2018-08-09T08:15:24.739Z,55.40
2018-08-09T08:17:53.848Z,54.05
2018-08-09T08:20:22.615Z,54.38
2018-08-09T08:22:51.900Z,54.41
2018-08-09T08:25:20.787Z,53.67
2018-08-09T08:27:49.558Z,53.37
2018-08-09T08:30:18.570Z,52.79
2018-08-09T08:32:48.101Z,53.21
2018-08-09T08:35:16.866Z,51.64
2018-08-09T08:37:45.589Z,51.02
2018-08-09T08:40:14.374Z,50.45
2018-08-09T08:42:43.743Z,50.57
2018-08-09T08:45:14.051Z,50.36
2018-08-09T08:47:43.236Z,50.64
2018-08-09T08:50:12.902Z,49.11
2018-08-09T08:52:41.804Z,50.59
2018-08-09T08:55:12.362Z,50.19
2018-08-09T08:57:41.180Z,50.18
2018-08-09T09:00:11.527Z,49.35
2018-08-09T09:02:40.722Z,49.25
2018-08-09T09:05:12.286Z,50.26
2018-08-09T09:07:40.934Z,48.89
2018-08-09T09:10:11.122Z,47.46
2018-08-09T09:12:39.848Z,44.97
2018-08-09T09:15:12.447Z,44.99
2018-08-09T09:17:42.133Z,43.86
2018-08-09T09:20:16.177Z,45.47
2018-08-09T09:22:45.616Z,45.29
2018-08-09T09:25:14.737Z,44.12
2018-08-09T09:27:43.499Z,43.43
2018-08-09T09:30:13.745Z,42.75
2018-08-09T09:32:42.749Z,42.71
2018-08-09T09:35:11.787Z,40.58
2018-08-09T09:37:41.209Z,40.06
2018-08-09T09:40:10.397Z,40.18
2018-08-09T09:42:40.001Z,40.36
2018-08-09T09:45:09.958Z,40.05
2018-08-09T09:47:38.691Z,38.63
2018-08-09T09:50:09.486Z,35.46
2018-08-09T09:52:38.439Z,37.29
2018-08-09T09:55:07.266Z,38.93
2018-08-09T09:57:36.752Z,39.08
2018-08-09T10:00:06.689Z,39.47
2018-08-09T10:02:35.469Z,38.74
2018-08-09T10:05:04.580Z,38.32
2018-08-09T10:07:34.043Z,37.80
2018-08-09T10:10:02.789Z,38.27
2018-08-09T10:12:31.498Z,37.77
2018-08-09T10:15:00.543Z,37.14
2018-08-09T10:17:29.324Z,36.22
2018-08-09T10:19:58.623Z,36.33
2018-08-09T10:22:27.636Z,36.33
2018-08-09T10:24:56.754Z,34.83
2018-08-09T10:27:27.167Z,35.16
2018-08-09T10:29:55.972Z,34.36
2018-08-09T10:32:24.994Z,35.37
2018-08-09T10:34:53.729Z,35.88
2018-08-09T10:37:22.712Z,35.43
2018-08-09T10:39:51.928Z,34.58
2018-08-09T10:42:20.632Z,35.11
2018-08-09T10:44:49.726Z,34.84
2018-08-09T10:47:18.537Z,34.97
2018-08-09T10:49:47.898Z,34.96
2018-08-09T10:52:16.605Z,34.58
2018-08-09T10:54:45.663Z,35.25
2018-08-09T10:57:14.465Z,34.07
2018-08-09T10:59:43.530Z,32.26
2018-08-09T11:02:13.119Z,31.80
2018-08-09T11:04:42.511Z,30.67
2018-08-09T11:07:11.291Z,31.99
2018-08-09T11:09:40.371Z,33.08
2018-08-09T11:12:09.083Z,33.50
2018-08-09T11:14:38.709Z,33.47
2018-08-09T11:17:07.736Z,33.65
2018-08-09T11:19:36.878Z,33.85
2018-08-09T11:22:05.633Z,33.85
2018-08-09T11:24:34.353Z,34.30
2018-08-09T11:27:03.407Z,34.45
2018-08-09T11:29:32.557Z,35.04
2018-08-09T11:32:01.365Z,34.70
2018-08-09T11:34:30.513Z,36.21
2018-08-09T11:36:59.343Z,36.28
2018-08-09T11:39:28.614Z,36.88
2018-08-09T11:41:57.439Z,36.24
2018-08-09T11:44:26.509Z,36.95
2018-08-09T11:46:55.210Z,36.91
2018-08-09T11:49:24.295Z,37.82
2018-08-09T11:51:53.519Z,38.73
2018-08-09T11:54:23.622Z,40.17
2018-08-09T11:56:53.033Z,41.88
2018-08-09T11:59:24.137Z,43.65
2018-08-09T12:01:52.862Z,45.96
2018-08-09T12:04:22.103Z,47.26
2018-08-09T12:06:51.437Z,50.28
2018-08-09T12:09:20.242Z,51.16
2018-08-09T12:11:49.276Z,52.71
2018-08-09T12:14:18.274Z,54.47
2018-08-09T12:16:47.710Z,57.76
2018-08-09T12:19:16.663Z,61.84
2018-08-09T12:21:46.061Z,64.79
2018-08-09T12:24:15.464Z,65.92
2018-08-09T12:26:44.317Z,68.41
2018-08-09T12:29:13.060Z,68.12
2018-08-09T12:31:41.801Z,66.62
2018-08-09T12:34:10.850Z,69.26
2018-08-09T12:36:39.963Z,67.59
2018-08-09T12:39:10.946Z,67.12
2018-08-09T12:41:39.684Z,67.14
2018-08-09T12:44:08.595Z,65.44
2018-08-09T12:46:37.329Z,66.18
2018-08-09T12:49:06.497Z,67.30
2018-08-09T12:51:35.253Z,68.10
2018-08-09T12:54:04.315Z,69.81
2018-08-09T12:56:36.679Z,70.69
2018-08-09T12:59:05.474Z,69.43
2018-08-09T13:01:34.272Z,70.57
2018-08-09T13:04:03.992Z,70.31
2018-08-09T13:06:32.798Z,70.73
2018-08-09T13:09:02.098Z,69.93
2018-08-09T13:11:30.849Z,70.23
2018-08-09T13:13:59.979Z,71.08
2018-08-09T13:16:28.717Z,71.39
2018-08-09T13:18:57.706Z,71.51
2018-08-09T13:21:27.000Z,71.81
2018-08-09T13:23:55.709Z,71.93
2018-08-09T13:26:24.753Z,71.93
2018-08-09T13:28:53.815Z,72.70
2018-08-09T13:31:22.908Z,73.79
2018-08-09T13:33:52.691Z,73.47
2018-08-09T13:36:21.516Z,73.36
2018-08-09T13:38:51.014Z,72.39
2018-08-09T13:41:20.115Z,72.74
2018-08-09T13:43:48.923Z,71.98
2018-08-09T13:46:18.593Z,72.41
2018-08-09T13:48:47.677Z,73.05
2018-08-09T13:51:16.691Z,72.53
2018-08-09T13:53:45.454Z,74.05
2018-08-09T13:56:14.304Z,72.03
2018-08-09T13:58:43.843Z,73.17
2018-08-09T14:01:12.935Z,71.67
2018-08-09T14:03:42.400Z,70.26
2018-08-09T14:06:12.176Z,71.47
2018-08-09T14:08:40.905Z,70.96
2018-08-09T14:11:09.659Z,71.06
2018-08-09T14:13:38.713Z,70.32
2018-08-09T14:16:09.418Z,70.32
2018-08-09T14:18:38.441Z,71.57
2018-08-09T14:21:07.643Z,70.05
2018-08-09T14:23:36.412Z,70.11
2018-08-09T14:26:05.824Z,70.66
2018-08-09T14:28:34.534Z,70.80
2018-08-09T14:31:03.277Z,69.59
2018-08-09T14:33:32.243Z,70.66
2018-08-09T14:36:00.988Z,70.37
2018-08-09T14:38:30.357Z,69.74
2018-08-09T14:40:59.112Z,70.35
2018-08-09T14:43:29.091Z,71.20
2018-08-09T14:45:58.144Z,71.69
2018-08-09T14:48:27.618Z,73.57
2018-08-09T14:50:56.759Z,75.50
2018-08-09T14:53:25.599Z,74.76
2018-08-09T14:55:54.367Z,76.60
2018-08-09T14:58:23.228Z,76.24
2018-08-09T15:00:52.161Z,77.53
2018-08-09T15:03:21.022Z,77.83
2018-08-09T15:05:50.141Z,78.81
2018-08-09T15:08:18.905Z,79.08
2018-08-09T15:10:48.231Z,79.17
2018-08-09T15:13:17.575Z,80.71
2018-08-09T15:15:46.335Z,81.67
2018-08-09T15:18:15.215Z,83.75
2018-08-09T15:20:43.958Z,85.06
2018-08-09T15:23:12.830Z,85.65
2018-08-09T15:25:42.002Z,84.93
2018-08-09T15:28:11.242Z,84.79
2018-08-09T15:30:39.978Z,87.09
2018-08-09T15:33:09.153Z,85.79
2018-08-09T15:35:37.944Z,85.86
2018-08-09T15:38:06.792Z,86.39
2018-08-09T15:40:35.563Z,86.46
2018-08-09T15:43:04.712Z,85.53
2018-08-09T15:45:33.532Z,85.38
2018-08-09T15:48:02.860Z,83.31
2018-08-09T15:50:31.931Z,83.53
2018-08-09T15:53:00.740Z,84.32
2018-08-09T15:55:29.553Z,81.81
2018-08-09T15:57:58.309Z,82.68
2018-08-09T16:00:27.039Z,83.45
2018-08-09T16:02:56.061Z,83.65
2018-08-09T16:05:25.053Z,83.70
2018-08-09T16:07:53.910Z,83.66
2018-08-09T16:10:23.009Z,83.57
2018-08-09T16:12:52.179Z,83.43
2018-08-09T16:15:26.069Z,83.85
2018-08-09T16:17:59.718Z,83.48
2018-08-09T16:20:28.648Z,83.24
2018-08-09T16:22:57.421Z,82.88
2018-08-09T16:25:26.198Z,83.53
2018-08-09T16:27:54.893Z,84.45
2018-08-09T16:30:25.024Z,85.02
2018-08-09T16:32:54.657Z,85.90
2018-08-09T16:35:23.869Z,86.42
2018-08-09T16:37:53.002Z,86.03
2018-08-09T16:40:23.257Z,86.23
2018-08-09T16:42:52.281Z,86.36
2018-08-09T16:45:22.597Z,86.68
2018-08-09T16:47:55.394Z,86.98
2018-08-09T16:50:25.505Z,86.85
2018-08-09T16:52:54.478Z,87.48
2018-08-09T16:55:24.197Z,86.98
2018-08-09T16:57:53.282Z,87.86
2018-08-09T17:00:23.646Z,88.36
2018-08-09T17:02:53.529Z,88.02
2018-08-09T17:05:23.971Z,88.14
2018-08-09T17:07:53.235Z,88.65
2018-08-09T17:10:23.885Z,89.27
2018-08-09T17:12:52.938Z,89.42
2018-08-09T17:15:25.755Z,89.60
2018-08-09T17:17:55.177Z,90.60
2018-08-09T17:20:26.681Z,90.24
2018-08-09T17:22:56.205Z,90.59
2018-08-09T17:25:25.032Z,90.92
2018-08-09T17:27:54.298Z,89.77
2018-08-09T17:30:25.007Z,90.42
2018-08-09T17:32:54.321Z,89.95
2018-08-09T17:35:23.088Z,89.04
2018-08-09T17:37:52.159Z,88.20
2018-08-09T17:40:25.059Z,88.28
2018-08-09T17:42:54.951Z,88.68
2018-08-09T17:45:33.077Z,88.90
2018-08-09T17:48:02.416Z,90.14
2018-08-09T17:50:31.208Z,89.19
2018-08-09T17:53:01.213Z,87.67
2018-08-09T17:55:30.905Z,87.52
2018-08-09T17:57:59.630Z,87.55
2018-08-09T18:00:29.901Z,86.59
2018-08-09T18:02:58.874Z,86.77
2018-08-09T18:05:27.639Z,87.14
2018-08-09T18:07:57.165Z,86.59
2018-08-09T18:10:28.188Z,86.68
2018-08-09T18:12:56.977Z,86.94
2018-08-09T18:15:26.998Z,86.51
2018-08-09T18:17:56.405Z,86.48
2018-08-09T18:20:29.649Z,86.96
2018-08-09T18:22:58.827Z,87.31
2018-08-09T18:25:27.889Z,86.70
2018-08-09T18:27:56.974Z,87.13
2018-08-09T18:30:25.739Z,87.09
2018-08-09T18:32:54.897Z,86.86
2018-08-09T18:35:23.726Z,87.21
2018-08-09T18:37:52.756Z,87.20
2018-08-09T18:40:25.991Z,86.85
2018-08-09T18:42:54.830Z,87.62
2018-08-09T18:45:23.953Z,87.35
2018-08-09T18:47:52.685Z,87.57
2018-08-09T18:50:24.606Z,87.46
2018-08-09T18:52:53.383Z,87.99
2018-08-09T18:55:22.393Z,87.37
2018-08-09T18:57:51.179Z,88.01
2018-08-09T19:00:28.629Z,88.02
2018-08-09T19:02:57.571Z,87.91
2018-08-09T19:05:26.718Z,87.09
2018-08-09T19:07:55.792Z,86.88
2018-08-09T19:10:27.664Z,86.80
2018-08-09T19:12:56.503Z,85.74
2018-08-09T19:15:25.939Z,86.02
2018-08-09T19:17:55.117Z,85.80
2018-08-09T19:20:27.195Z,86.11
2018-08-09T19:22:55.982Z,86.20
2018-08-09T19:25:24.941Z,85.57
2018-08-09T19:27:53.998Z,84.24
2018-08-09T19:30:25.007Z,84.12
2018-08-09T19:32:54.134Z,80.77
2018-08-09T19:35:23.389Z,79.95
2018-08-09T19:37:52.297Z,78.38
2018-08-09T19:40:26.529Z,77.69
2018-08-09T19:42:55.328Z,77.76
2018-08-09T19:45:24.904Z,77.54
2018-08-09T19:47:53.633Z,77.70
2018-08-09T19:50:24.028Z,76.89
2018-08-09T19:52:52.802Z,77.44
2018-08-09T19:55:23.300Z,77.35
2018-08-09T19:57:52.602Z,77.41
2018-08-09T20:00:25.816Z,77.54
2018-08-09T20:02:54.774Z,77.07
2018-08-09T20:05:24.296Z,77.95
2018-08-09T20:07:53.093Z,76.61
2018-08-09T20:10:22.137Z,76.36
2018-08-09T20:12:51.655Z,75.62
2018-08-09T20:15:22.163Z,74.80
2018-08-09T20:17:51.487Z,75.34
2018-08-09T20:20:23.463Z,75.15
2018-08-09T20:22:52.346Z,74.75
2018-08-09T20:25:21.560Z,75.30
2018-08-09T20:27:50.385Z,75.73
2018-08-09T20:30:19.754Z,76.20
2018-08-09T20:32:49.138Z,75.77
2018-08-09T20:35:24.162Z,75.98
2018-08-09T20:37:53.749Z,77.14
2018-08-09T20:40:23.530Z,77.07
2018-08-09T20:42:54.338Z,77.01
2018-08-09T20:45:23.931Z,77.31
2018-08-09T20:47:53.168Z,77.29
2018-08-09T20:50:27.434Z,77.55
2018-08-09T20:52:56.254Z,77.90
2018-08-09T20:55:25.050Z,78.17
2018-08-09T20:57:54.735Z,78.64
2018-08-09T21:00:27.434Z,79.00
2018-08-09T21:02:57.493Z,79.03
2018-08-09T21:05:28.193Z,79.75
2018-08-09T21:07:57.265Z,80.17
2018-08-09T21:10:27.041Z,80.60
2018-08-09T21:12:55.989Z,80.51
2018-08-09T21:15:24.791Z,81.29
2018-08-09T21:17:53.577Z,81.12
2018-08-09T21:20:22.726Z,81.63
2018-08-09T21:22:53.121Z,81.50
2018-08-09T21:25:22.482Z,81.59
2018-08-09T21:27:51.506Z,82.23
2018-08-09T21:30:21.885Z,81.34
2018-08-09T21:32:51.207Z,82.26
2018-08-09T21:35:20.009Z,82.45
2018-08-09T21:37:49.690Z,82.50
2018-08-09T21:40:19.274Z,82.47
2018-08-09T21:42:48.056Z,83.54
2018-08-09T21:45:18.480Z,82.82
2018-08-09T21:47:47.412Z,83.15
2018-08-09T21:50:18.888Z,82.60
2018-08-09T21:52:47.681Z,83.01
2018-08-09T21:55:16.485Z,82.94
2018-08-09T21:57:47.214Z,82.43
2018-08-09T22:00:57.234Z,82.51
2018-08-09T22:03:29.510Z,82.38
2018-08-09T22:06:03.919Z,82.90
2018-08-09T22:08:37.938Z,83.06
2018-08-09T22:11:12.460Z,84.15
2018-08-09T22:13:46.680Z,84.59
2018-08-09T22:16:21.257Z,84.20
2018-08-09T22:18:55.177Z,84.25
2018-08-09T22:21:29.190Z,84.95
2018-08-09T22:23:58.139Z,85.09
2018-08-09T22:26:26.891Z,84.94
2018-08-09T22:28:55.916Z,84.76
2018-08-09T22:31:24.882Z,84.17
2018-08-09T22:33:54.262Z,84.19
2018-08-09T22:36:23.048Z,84.59
2018-08-09T22:38:51.760Z,85.10
2018-08-09T22:41:20.713Z,85.50
2018-08-09T22:43:50.594Z,84.77
2018-08-09T22:46:19.785Z,84.96
2018-08-09T22:48:49.423Z,85.20
2018-08-09T22:51:19.314Z,84.97
2018-08-09T22:53:48.097Z,85.55
2018-08-09T22:56:16.889Z,84.97
2018-08-09T22:58:45.716Z,86.04
2018-08-09T23:01:14.615Z,86.29
2018-08-09T23:03:49.670Z,86.24
2018-08-09T23:06:18.403Z,87.34
2018-08-09T23:08:47.528Z,88.49
2018-08-09T23:11:16.394Z,88.92
2018-08-09T23:13:45.608Z,89.11
2018-08-09T23:16:14.403Z,88.36
2018-08-09T23:18:43.177Z,88.38
2018-08-09T23:21:11.921Z,88.83
2018-08-09T23:23:40.678Z,87.71
2018-08-09T23:26:09.466Z,87.91
2018-08-09T23:28:38.299Z,87.47
2018-08-09T23:31:07.147Z,87.02
2018-08-09T23:33:36.227Z,86.59
2018-08-09T23:36:06.933Z,86.79
2018-08-09T23:38:35.767Z,85.85
2018-08-09T23:41:04.528Z,86.02
2018-08-09T23:43:33.357Z,86.22
2018-08-09T23:46:02.396Z,86.21
2018-08-09T23:48:31.207Z,86.44
2018-08-09T23:51:00.044Z,86.86
2018-08-09T23:53:29.272Z,87.16
2018-08-09T23:55:58.006Z,87.68
2018-08-09T23:58:26.959Z,88.53
